NORTHEAST SUFFOLK  -  Rip Current Statement Rip Current Statement        NORTHERN NASSAU  -  Rip Current Statement Rip Current Statement        NORTHERN QUEENS  -  Rip Current Statement Rip Current Statement        NORTHWEST SUFFOLK  -  Rip Current Statement Rip Current Statement        SOUTHEAST SUFFOLK  -  Rip Current Statement Rip Current Statement        SOUTHERN NASSAU  -  Rip Current Statement Rip Current Statement        SOUTHERN QUEENS  -  Rip Current Statement Rip Current Statement        SOUTHWEST SUFFOLK  -  Rip Current Statement Rip Current Statement      

Active alerts

Northern Queens
  Details for Northern Queens Rip Current Statement
Southern Queens
  Details for Southern Queens Rip Current Statement
Northern Nassau
  Details for Northern Nassau Rip Current Statement
Southern Nassau
  Details for Southern Nassau Rip Current Statement
Northwest Suffolk
  Details for Northwest Suffolk Rip Current Statement
Southwest Suffolk
  Details for Southwest Suffolk Rip Current Statement
Northeast Suffolk
  Details for Northeast Suffolk Rip Current Statement
Southeast Suffolk
  Details for Southeast Suffolk Rip Current Statement


WXM80 ListenWXM80 Stop

You find our weather info also at:

UK Metoffice

WeatherCloud

Weather Underground

Northeastern Weather Network

AWEKAS

Citizen Weather Observer Program (CWOP)

HAMweather, WeatherForYou, PWS Weather


Weather Underground History page Text

Daily Summary for March 8, 2017 Units:  Both    English   Metric
« Previous Day
Next Day »
Daily Weekly Monthly Yearly Custom
  High: Low: Average:
Temperature: 59.9 °F /  15.5 °C 47.2 °F /  8.4 °C 52.6 °F /  11.4 °C
Dew Point: 50.3 °F /  10.2 °C 27.4 °F /  -2.6 °C 39.4 °F /  4.1 °C
Humidity: 95 % 30 % 64 %
Wind Speed: 14.4 mph /  23.2 km/h - 6.1 mph /  9.8 km/h
Wind Gust: 23.0 mph /  37 km/h - -
Wind:- - SW
Pressure: 29.98 in /  1015.1 hPa 29.84 in /  1010.4 hPa -
Precipitation: 0.00 in /  0 mm    
Historical Graphs
 
 
Tabular Data for March 8, 2017
Time Temperature Dew Point Pressure Wind Wind Speed Wind Gust Humidity Rainfall Rate (Hourly)
00:04 51.9 °F /  11.1 °C 47.2 °F /  8.4 °C 29.98 in /  1015.1 hPa South 4.5 mph /  7.2 km/h 6.9 mph /  11.1 km/h 84 % 0.00 in /  0 mm
00:09 52.0 °F /  11.1 °C 47.3 °F /  8.5 °C 29.98 in /  1015.1 hPa South 4.6 mph /  7.4 km/h 8.1 mph /  13 km/h 84 % 0.00 in /  0 mm
00:14 52.0 °F /  11.1 °C 47.3 °F /  8.5 °C 29.98 in /  1015.1 hPa SSW 7.0 mph /  11.3 km/h 11.5 mph /  18.5 km/h 84 % 0.00 in /  0 mm
00:19 52.1 °F /  11.2 °C 47.4 °F /  8.6 °C 29.97 in /  1014.8 hPa South 5.0 mph /  8 km/h 6.9 mph /  11.1 km/h 84 % 0.00 in /  0 mm
00:24 52.1 °F /  11.2 °C 47.4 °F /  8.6 °C 29.98 in /  1015.1 hPa South 4.7 mph /  7.6 km/h 8.1 mph /  13 km/h 84 % 0.00 in /  0 mm
00:29 52.1 °F /  11.2 °C 47.4 °F /  8.6 °C 29.97 in /  1014.8 hPa South 5.3 mph /  8.5 km/h 8.0 mph /  12.9 km/h 84 % 0.00 in /  0 mm
00:34 52.2 °F /  11.2 °C 47.5 °F /  8.6 °C 29.96 in /  1014.4 hPa South 4.5 mph /  7.2 km/h 8.0 mph /  12.9 km/h 84 % 0.00 in /  0 mm
00:39 52.3 °F /  11.3 °C 47.6 °F /  8.7 °C 29.96 in /  1014.4 hPa SSW 6.6 mph /  10.6 km/h 12.0 mph /  19.3 km/h 84 % 0.00 in /  0 mm
00:44 52.4 °F /  11.3 °C 47.7 °F /  8.7 °C 29.96 in /  1014.4 hPa SSW 5.6 mph /  9 km/h 7.0 mph /  11.3 km/h 84 % 0.00 in /  0 mm
00:50 52.6 °F /  11.4 °C 47.9 °F /  8.8 °C 29.95 in /  1014.1 hPa SSW 5.8 mph /  9.3 km/h 11.5 mph /  18.5 km/h 84 % 0.00 in /  0 mm
00:54 52.7 °F /  11.5 °C 48.0 °F /  8.9 °C 29.95 in /  1014.1 hPa SSW 4.0 mph /  6.4 km/h 9.2 mph /  14.8 km/h 84 % 0.00 in /  0 mm
01:00 52.8 °F /  11.6 °C 48.4 °F /  9.1 °C 29.95 in /  1014.1 hPa SSE 8.0 mph /  12.9 km/h 12.0 mph /  19.3 km/h 85 % 0.00 in /  0 mm
01:05 52.8 °F /  11.6 °C 48.4 °F /  9.1 °C 29.95 in /  1014.1 hPa South 6.6 mph /  10.6 km/h 10.4 mph /  16.7 km/h 85 % 0.00 in /  0 mm
01:10 52.8 °F /  11.6 °C 48.4 °F /  9.1 °C 29.95 in /  1014.1 hPa SSW 3.9 mph /  6.3 km/h 10.4 mph /  16.7 km/h 85 % 0.00 in /  0 mm
01:11 52.8 °F /  11.6 °C 48.4 °F /  9.1 °C 29.95 in /  1014.1 hPa SSE 5.6 mph /  9 km/h 8.1 mph /  13 km/h 85 % 0.00 in /  0 mm
01:16 52.8 °F /  11.6 °C 48.4 °F /  9.1 °C 29.95 in /  1014.1 hPa SSW 7.1 mph /  11.4 km/h 12.7 mph /  20.4 km/h 85 % 0.00 in /  0 mm
01:17 52.8 °F /  11.6 °C 48.4 °F /  9.1 °C 29.95 in /  1014.1 hPa SSW 5.6 mph /  9 km/h 10.4 mph /  16.7 km/h 85 % 0.00 in /  0 mm
01:22 52.9 °F /  11.6 °C 48.8 °F /  9.3 °C 29.94 in /  1013.8 hPa WSW 5.5 mph /  8.9 km/h 9.2 mph /  14.8 km/h 86 % 0.00 in /  0 mm
01:27 53.0 °F /  11.7 °C 48.9 °F /  9.4 °C 29.94 in /  1013.8 hPa SW 8.5 mph /  13.7 km/h 11.5 mph /  18.5 km/h 86 % 0.00 in /  0 mm
01:32 53.1 °F /  11.7 °C 49.3 °F /  9.6 °C 29.94 in /  1013.8 hPa SSW 6.3 mph /  10.1 km/h 11.5 mph /  18.5 km/h 87 % 0.00 in /  0 mm
01:37 53.1 °F /  11.7 °C 49.3 °F /  9.6 °C 29.94 in /  1013.8 hPa SSW 6.5 mph /  10.5 km/h 8.1 mph /  13 km/h 87 % 0.00 in /  0 mm
01:42 53.2 °F /  11.8 °C 49.4 °F /  9.7 °C 29.93 in /  1013.4 hPa South 6.6 mph /  10.6 km/h 12.7 mph /  20.4 km/h 87 % 0.00 in /  0 mm
01:47 53.2 °F /  11.8 °C 49.7 °F /  9.8 °C 29.93 in /  1013.4 hPa SW 4.3 mph /  6.9 km/h 8.1 mph /  13 km/h 88 % 0.00 in /  0 mm
01:52 53.1 °F /  11.7 °C 49.9 °F /  9.9 °C 29.92 in /  1013.1 hPa SW 4.7 mph /  7.6 km/h 9.2 mph /  14.8 km/h 89 % 0.00 in /  0 mm
01:57 53.1 °F /  11.7 °C 49.9 °F /  9.9 °C 29.92 in /  1013.1 hPa SSE 6.5 mph /  10.5 km/h 13.0 mph /  20.9 km/h 89 % 0.00 in /  0 mm
02:02 53.1 °F /  11.7 °C 49.9 °F /  9.9 °C 29.92 in /  1013.1 hPa SW 7.2 mph /  11.6 km/h 19.0 mph /  30.6 km/h 89 % 0.00 in /  0 mm
02:07 53.1 °F /  11.7 °C 50.2 °F /  10.1 °C 29.92 in /  1013.1 hPa South 5.5 mph /  8.9 km/h 11.5 mph /  18.5 km/h 90 % 0.00 in /  0 mm
02:12 53.1 °F /  11.7 °C 50.2 °F /  10.1 °C 29.92 in /  1013.1 hPa South 5.4 mph /  8.7 km/h 11.5 mph /  18.5 km/h 90 % 0.00 in /  0 mm
02:17 53.1 °F /  11.7 °C 50.2 °F /  10.1 °C 29.92 in /  1013.1 hPa SSW 5.7 mph /  9.2 km/h 11.5 mph /  18.5 km/h 90 % 0.00 in /  0 mm
02:23 53.1 °F /  11.7 °C 50.2 °F /  10.1 °C 29.92 in /  1013.1 hPa South 7.1 mph /  11.4 km/h 12.7 mph /  20.4 km/h 90 % 0.00 in /  0 mm
02:28 53.0 °F /  11.7 °C 50.1 °F /  10.1 °C 29.91 in /  1012.8 hPa SSE 6.8 mph /  10.9 km/h 10.4 mph /  16.7 km/h 90 % 0.00 in /  0 mm
02:33 52.9 °F /  11.6 °C 50.0 °F /  10 °C 29.91 in /  1012.8 hPa SSW 6.4 mph /  10.3 km/h 8.1 mph /  13 km/h 90 % 0.00 in /  0 mm
02:38 52.8 °F /  11.6 °C 49.9 °F /  9.9 °C 29.90 in /  1012.4 hPa SSW 5.0 mph /  8 km/h 11.5 mph /  18.5 km/h 90 % 0.00 in /  0 mm
02:43 52.7 °F /  11.5 °C 49.9 °F /  9.9 °C 29.90 in /  1012.4 hPa South 6.0 mph /  9.7 km/h 12.0 mph /  19.3 km/h 90 % 0.00 in /  0 mm
02:48 52.7 °F /  11.5 °C 49.8 °F /  9.9 °C 29.90 in /  1012.4 hPa SSW 7.0 mph /  11.3 km/h 12.0 mph /  19.3 km/h 90 % 0.00 in /  0 mm
02:53 52.6 °F /  11.4 °C 49.8 °F /  9.9 °C 29.90 in /  1012.4 hPa SSW 6.0 mph /  9.7 km/h 13.0 mph /  20.9 km/h 90 % 0.00 in /  0 mm
02:58 52.5 °F /  11.4 °C 49.7 °F /  9.8 °C 29.89 in /  1012.1 hPa South 6.1 mph /  9.8 km/h 9.0 mph /  14.5 km/h 90 % 0.00 in /  0 mm
03:03 52.4 °F /  11.3 °C 49.8 °F /  9.9 °C 29.88 in /  1011.7 hPa SSW 7.1 mph /  11.4 km/h 9.0 mph /  14.5 km/h 91 % 0.00 in /  0 mm
03:08 52.4 °F /  11.3 °C 49.8 °F /  9.9 °C 29.88 in /  1011.7 hPa South 11.2 mph /  18 km/h 18.4 mph /  29.6 km/h 91 % 0.00 in /  0 mm
03:13 52.4 °F /  11.3 °C 49.8 °F /  9.9 °C 29.88 in /  1011.7 hPa South 10.6 mph /  17.1 km/h 17.3 mph /  27.8 km/h 91 % 0.00 in /  0 mm
03:18 52.4 °F /  11.3 °C 49.8 °F /  9.9 °C 29.88 in /  1011.7 hPa SW 8.5 mph /  13.7 km/h 15.0 mph /  24.1 km/h 91 % 0.00 in /  0 mm
03:23 52.4 °F /  11.3 °C 49.6 °F /  9.8 °C 29.88 in /  1011.7 hPa South 8.5 mph /  13.7 km/h 13.8 mph /  22.2 km/h 90 % 0.00 in /  0 mm
03:29 52.3 °F /  11.3 °C 49.5 °F /  9.7 °C 29.87 in /  1011.4 hPa South 6.4 mph /  10.3 km/h 10.4 mph /  16.7 km/h 90 % 0.00 in /  0 mm
03:34 52.4 °F /  11.3 °C 49.8 °F /  9.9 °C 29.87 in /  1011.4 hPa South 7.3 mph /  11.7 km/h 10.4 mph /  16.7 km/h 91 % 0.00 in /  0 mm
03:39 52.5 °F /  11.4 °C 49.9 °F /  9.9 °C 29.86 in /  1011.1 hPa SSW 5.5 mph /  8.9 km/h 10.0 mph /  16.1 km/h 91 % 0.00 in /  0 mm
03:44 52.6 °F /  11.4 °C 50.0 °F /  10 °C 29.86 in /  1011.1 hPa SSW 8.4 mph /  13.5 km/h 16.1 mph /  25.9 km/h 91 % 0.00 in /  0 mm
03:49 52.7 °F /  11.5 °C 50.1 °F /  10.1 °C 29.86 in /  1011.1 hPa SSW 8.2 mph /  13.2 km/h 16.1 mph /  25.9 km/h 91 % 0.00 in /  0 mm
03:54 52.9 °F /  11.6 °C 50.3 °F /  10.2 °C 29.86 in /  1011.1 hPa SSW 5.4 mph /  8.7 km/h 13.8 mph /  22.2 km/h 91 % 0.00 in /  0 mm
03:59 53.0 °F /  11.7 °C 50.1 °F /  10.1 °C 29.86 in /  1011.1 hPa South 5.0 mph /  8 km/h 16.1 mph /  25.9 km/h 90 % 0.00 in /  0 mm
04:04 53.0 °F /  11.7 °C 50.1 °F /  10.1 °C 29.86 in /  1011.1 hPa SSW 6.7 mph /  10.8 km/h 11.5 mph /  18.5 km/h 90 % 0.00 in /  0 mm
04:09 53.0 °F /  11.7 °C 50.1 °F /  10.1 °C 29.85 in /  1010.7 hPa SSW 6.3 mph /  10.1 km/h 12.7 mph /  20.4 km/h 90 % 0.00 in /  0 mm
04:14 53.0 °F /  11.7 °C 50.1 °F /  10.1 °C 29.86 in /  1011.1 hPa SSW 4.4 mph /  7.1 km/h 9.2 mph /  14.8 km/h 90 % 0.00 in /  0 mm
04:20 53.0 °F /  11.7 °C 50.1 °F /  10.1 °C 29.86 in /  1011.1 hPa SSW 7.4 mph /  11.9 km/h 10.0 mph /  16.1 km/h 90 % 0.00 in /  0 mm
04:22 53.0 °F /  11.7 °C 50.1 °F /  10.1 °C 29.86 in /  1011.1 hPa South 5.4 mph /  8.7 km/h 9.2 mph /  14.8 km/h 90 % 0.00 in /  0 mm
04:27 53.0 °F /  11.7 °C 50.1 °F /  10.1 °C 29.86 in /  1011.1 hPa South 7.8 mph /  12.6 km/h 10.4 mph /  16.7 km/h 90 % 0.00 in /  0 mm
04:32 52.9 °F /  11.6 °C 50.0 °F /  10 °C 29.86 in /  1011.1 hPa SSW 8.1 mph /  13 km/h 15.0 mph /  24.1 km/h 90 % 0.00 in /  0 mm
04:37 52.8 °F /  11.6 °C 49.9 °F /  9.9 °C 29.86 in /  1011.1 hPa SW 8.1 mph /  13 km/h 13.8 mph /  22.2 km/h 90 % 0.00 in /  0 mm
04:43 52.8 °F /  11.6 °C 49.9 °F /  9.9 °C 29.86 in /  1011.1 hPa SSW 7.0 mph /  11.3 km/h 11.5 mph /  18.5 km/h 90 % 0.00 in /  0 mm
04:48 52.7 °F /  11.5 °C 49.8 °F /  9.9 °C 29.85 in /  1010.7 hPa SW 7.4 mph /  11.9 km/h 13.0 mph /  20.9 km/h 90 % 0.00 in /  0 mm
04:53 52.6 °F /  11.4 °C 49.8 °F /  9.9 °C 29.85 in /  1010.7 hPa South 6.4 mph /  10.3 km/h 10.4 mph /  16.7 km/h 90 % 0.00 in /  0 mm
04:58 52.5 °F /  11.4 °C 49.7 °F /  9.8 °C 29.84 in /  1010.4 hPa South 6.6 mph /  10.6 km/h 11.5 mph /  18.5 km/h 90 % 0.00 in /  0 mm
05:03 52.4 °F /  11.3 °C 49.6 °F /  9.8 °C 29.84 in /  1010.4 hPa South 8.6 mph /  13.8 km/h 13.8 mph /  22.2 km/h 90 % 0.00 in /  0 mm
05:08 52.4 °F /  11.3 °C 49.8 °F /  9.9 °C 29.84 in /  1010.4 hPa South 8.0 mph /  12.9 km/h 15.0 mph /  24.1 km/h 91 % 0.00 in /  0 mm
05:13 52.3 °F /  11.3 °C 49.8 °F /  9.9 °C 29.84 in /  1010.4 hPa South 7.0 mph /  11.3 km/h 14.0 mph /  22.5 km/h 91 % 0.00 in /  0 mm
05:18 52.3 °F /  11.3 °C 49.5 °F /  9.7 °C 29.85 in /  1010.7 hPa South 7.0 mph /  11.3 km/h 13.0 mph /  20.9 km/h 90 % 0.00 in /  0 mm
05:23 52.2 °F /  11.2 °C 49.7 °F /  9.8 °C 29.85 in /  1010.7 hPa SSW 6.0 mph /  9.7 km/h 12.0 mph /  19.3 km/h 91 % 0.00 in /  0 mm
05:28 52.1 °F /  11.2 °C 49.6 °F /  9.8 °C 29.85 in /  1010.7 hPa SSW 8.0 mph /  12.9 km/h 20.0 mph /  32.2 km/h 91 % 0.00 in /  0 mm
05:33 52.0 °F /  11.1 °C 49.7 °F /  9.8 °C 29.85 in /  1010.7 hPa SSW 8.0 mph /  12.9 km/h 13.0 mph /  20.9 km/h 92 % 0.00 in /  0 mm
05:38 51.8 °F /  11 °C 49.6 °F /  9.8 °C 29.85 in /  1010.7 hPa SSW 8.0 mph /  12.9 km/h 18.0 mph /  29 km/h 92 % 0.00 in /  0 mm
05:43 51.7 °F /  10.9 °C 49.7 °F /  9.8 °C 29.85 in /  1010.7 hPa South 6.3 mph /  10.1 km/h 10.4 mph /  16.7 km/h 93 % 0.00 in /  0 mm
05:48 51.5 °F /  10.8 °C 49.5 °F /  9.7 °C 29.85 in /  1010.7 hPa SSW 7.0 mph /  11.3 km/h 12.0 mph /  19.3 km/h 93 % 0.00 in /  0 mm
05:53 51.4 °F /  10.8 °C 49.4 °F /  9.7 °C 29.85 in /  1010.7 hPa SSW 5.4 mph /  8.7 km/h 10.4 mph /  16.7 km/h 93 % 0.00 in /  0 mm
05:58 51.3 °F /  10.7 °C 49.3 °F /  9.6 °C 29.85 in /  1010.7 hPa SSW 6.3 mph /  10.1 km/h 13.0 mph /  20.9 km/h 93 % 0.00 in /  0 mm
06:03 51.2 °F /  10.7 °C 49.2 °F /  9.6 °C 29.85 in /  1010.7 hPa South 6.0 mph /  9.7 km/h 9.2 mph /  14.8 km/h 93 % 0.00 in /  0 mm
06:08 51.2 °F /  10.7 °C 49.5 °F /  9.7 °C 29.85 in /  1010.7 hPa SSW 5.4 mph /  8.7 km/h 10.4 mph /  16.7 km/h 94 % 0.00 in /  0 mm
06:13 51.2 °F /  10.7 °C 49.5 °F /  9.7 °C 29.85 in /  1010.7 hPa SSW 9.3 mph /  15 km/h 12.7 mph /  20.4 km/h 94 % 0.00 in /  0 mm
06:18 51.2 °F /  10.7 °C 49.5 °F /  9.7 °C 29.85 in /  1010.7 hPa SSW 6.2 mph /  10 km/h 11.5 mph /  18.5 km/h 94 % 0.00 in /  0 mm
06:23 51.2 °F /  10.7 °C 49.8 °F /  9.9 °C 29.92 in /  1013.1 hPa West 14.4 mph /  23.2 km/h 23.0 mph /  37 km/h 95 % 0.00 in /  0 mm
06:28 50.4 °F /  10.2 °C 48.5 °F /  9.2 °C 29.92 in /  1013.1 hPa NW 10.3 mph /  16.6 km/h 20.7 mph /  33.3 km/h 93 % 0.00 in /  0 mm
06:29 50.3 °F /  10.2 °C 48.1 °F /  8.9 °C 29.92 in /  1013.1 hPa SW 9.3 mph /  15 km/h 20.7 mph /  33.3 km/h 92 % 0.00 in /  0 mm
06:34 49.5 °F /  9.7 °C 47.0 °F /  8.3 °C 29.92 in /  1013.1 hPa West 7.1 mph /  11.4 km/h 12.0 mph /  19.3 km/h 91 % 0.00 in /  0 mm
06:39 48.9 °F /  9.4 °C 46.1 °F /  7.8 °C 29.93 in /  1013.4 hPa WNW 5.3 mph /  8.5 km/h 16.1 mph /  25.9 km/h 90 % 0.00 in /  0 mm
06:44 48.3 °F /  9.1 °C 45.2 °F /  7.3 °C 29.93 in /  1013.4 hPa WSW 9.3 mph /  15 km/h 15.0 mph /  24.1 km/h 89 % 0.00 in /  0 mm
06:49 47.9 °F /  8.8 °C 44.8 °F /  7.1 °C 29.94 in /  1013.8 hPa WSW 7.1 mph /  11.4 km/h 15.0 mph /  24.1 km/h 89 % 0.00 in /  0 mm
06:54 47.7 °F /  8.7 °C 44.6 °F /  7 °C 29.93 in /  1013.4 hPa West 7.2 mph /  11.6 km/h 12.7 mph /  20.4 km/h 89 % 0.00 in /  0 mm
06:59 47.5 °F /  8.6 °C 44.1 °F /  6.7 °C 29.94 in /  1013.8 hPa WSW 7.1 mph /  11.4 km/h 12.7 mph /  20.4 km/h 88 % 0.00 in /  0 mm
07:04 47.4 °F /  8.6 °C 44.0 °F /  6.7 °C 29.94 in /  1013.8 hPa West 7.5 mph /  12.1 km/h 18.4 mph /  29.6 km/h 88 % 0.00 in /  0 mm
07:09 47.3 °F /  8.5 °C 43.6 °F /  6.4 °C 29.93 in /  1013.4 hPa WNW 4.9 mph /  7.9 km/h 9.2 mph /  14.8 km/h 87 % 0.00 in /  0 mm
07:14 47.3 °F /  8.5 °C 43.6 °F /  6.4 °C 29.93 in /  1013.4 hPa West 2.2 mph /  3.5 km/h 4.0 mph /  6.4 km/h 87 % 0.00 in /  0 mm
07:19 47.2 °F /  8.4 °C 43.2 °F /  6.2 °C 29.93 in /  1013.4 hPa West 1.4 mph /  2.3 km/h 8.1 mph /  13 km/h 86 % 0.00 in /  0 mm
07:25 47.2 °F /  8.4 °C 43.2 °F /  6.2 °C 29.93 in /  1013.4 hPa West 6.0 mph /  9.7 km/h 6.9 mph /  11.1 km/h 86 % 0.00 in /  0 mm
07:30 47.2 °F /  8.4 °C 42.9 °F /  6.1 °C 29.93 in /  1013.4 hPa West 5.1 mph /  8.2 km/h 10.0 mph /  16.1 km/h 85 % 0.00 in /  0 mm
07:35 47.3 °F /  8.5 °C 42.7 °F /  5.9 °C 29.93 in /  1013.4 hPa WSW 6.1 mph /  9.8 km/h 6.1 mph /  9.8 km/h 84 % 0.00 in /  0 mm
07:40 47.3 °F /  8.5 °C 42.7 °F /  5.9 °C 29.93 in /  1013.4 hPa WNW 1.0 mph /  1.6 km/h 5.8 mph /  9.3 km/h 84 % 0.00 in /  0 mm
07:45 47.3 °F /  8.5 °C 42.7 °F /  5.9 °C 29.92 in /  1013.1 hPa WSW 4.0 mph /  6.4 km/h 9.2 mph /  14.8 km/h 84 % 0.00 in /  0 mm
07:50 47.4 °F /  8.6 °C 42.8 °F /  6 °C 29.93 in /  1013.4 hPa WSW 3.8 mph /  6.1 km/h 6.9 mph /  11.1 km/h 84 % 0.00 in /  0 mm
07:55 47.4 °F /  8.6 °C 42.5 °F /  5.8 °C 29.92 in /  1013.1 hPa West 2.5 mph /  4 km/h 4.0 mph /  6.4 km/h 83 % 0.00 in /  0 mm
08:00 47.4 °F /  8.6 °C 42.5 °F /  5.8 °C 29.92 in /  1013.1 hPa West 0.2 mph /  0.3 km/h 4.6 mph /  7.4 km/h 83 % 0.00 in /  0 mm
08:05 47.5 °F /  8.6 °C 42.6 °F /  5.9 °C 29.92 in /  1013.1 hPa Calm   2.3 mph /  3.7 km/h 83 % 0.00 in /  0 mm
08:10 47.5 °F /  8.6 °C 42.6 °F /  5.9 °C 29.92 in /  1013.1 hPa SW 1.1 mph /  1.8 km/h 2.3 mph /  3.7 km/h 83 % 0.00 in /  0 mm
08:15 47.6 °F /  8.7 °C 42.7 °F /  5.9 °C 29.91 in /  1012.8 hPa SW 0.3 mph /  0.5 km/h 3.5 mph /  5.6 km/h 83 % 0.00 in /  0 mm
08:20 47.6 °F /  8.7 °C 43.0 °F /  6.1 °C 29.92 in /  1013.1 hPa SW 2.7 mph /  4.3 km/h 6.0 mph /  9.7 km/h 84 % 0.00 in /  0 mm
08:25 47.5 °F /  8.6 °C 42.6 °F /  5.9 °C 29.93 in /  1013.4 hPa SW 4.1 mph /  6.6 km/h 5.0 mph /  8 km/h 83 % 0.00 in /  0 mm
08:30 47.5 °F /  8.6 °C 42.0 °F /  5.6 °C 29.92 in /  1013.1 hPa WSW 2.0 mph /  3.2 km/h 3.5 mph /  5.6 km/h 81 % 0.00 in /  0 mm
08:36 47.5 °F /  8.6 °C 42.3 °F /  5.7 °C 29.93 in /  1013.4 hPa West 4.2 mph /  6.8 km/h 8.1 mph /  13 km/h 82 % 0.00 in /  0 mm
08:41 47.6 °F /  8.7 °C 42.1 °F /  5.6 °C 29.93 in /  1013.4 hPa WSW 4.0 mph /  6.4 km/h 12.0 mph /  19.3 km/h 81 % 0.00 in /  0 mm
08:46 47.6 °F /  8.7 °C 42.1 °F /  5.6 °C 29.94 in /  1013.8 hPa SW 6.2 mph /  10 km/h 8.0 mph /  12.9 km/h 81 % 0.00 in /  0 mm
08:51 47.6 °F /  8.7 °C 41.7 °F /  5.4 °C 29.95 in /  1014.1 hPa SW 5.5 mph /  8.9 km/h 9.2 mph /  14.8 km/h 80 % 0.00 in /  0 mm
08:56 47.7 °F /  8.7 °C 41.5 °F /  5.3 °C 29.95 in /  1014.1 hPa WSW 11.9 mph /  19.2 km/h 15.0 mph /  24.1 km/h 79 % 0.00 in /  0 mm
09:01 47.8 °F /  8.8 °C 41.6 °F /  5.3 °C 29.96 in /  1014.4 hPa WSW 5.6 mph /  9 km/h 11.5 mph /  18.5 km/h 79 % 0.00 in /  0 mm
09:06 47.9 °F /  8.8 °C 41.4 °F /  5.2 °C 29.96 in /  1014.4 hPa WSW 7.4 mph /  11.9 km/h 13.8 mph /  22.2 km/h 78 % 0.00 in /  0 mm
09:08 47.9 °F /  8.8 °C 41.4 °F /  5.2 °C 29.95 in /  1014.1 hPa WSW 12.9 mph /  20.8 km/h 15.0 mph /  24.1 km/h 78 % 0.00 in /  0 mm
09:13 47.9 °F /  8.8 °C 41.4 °F /  5.2 °C 29.96 in /  1014.4 hPa WSW 10.4 mph /  16.7 km/h 14.0 mph /  22.5 km/h 78 % 0.00 in /  0 mm
09:18 48.0 °F /  8.9 °C 41.5 °F /  5.3 °C 29.96 in /  1014.4 hPa WSW 9.0 mph /  14.5 km/h 17.0 mph /  27.4 km/h 78 % 0.00 in /  0 mm
09:23 48.0 °F /  8.9 °C 41.1 °F /  5.1 °C 29.96 in /  1014.4 hPa WSW 8.0 mph /  12.9 km/h 17.0 mph /  27.4 km/h 77 % 0.00 in /  0 mm
09:28 48.1 °F /  8.9 °C 41.2 °F /  5.1 °C 29.96 in /  1014.4 hPa WSW 5.0 mph /  8 km/h 17.0 mph /  27.4 km/h 77 % 0.00 in /  0 mm
09:33 48.3 °F /  9.1 °C 40.8 °F /  4.9 °C 29.95 in /  1014.1 hPa West 8.0 mph /  12.9 km/h 20.0 mph /  32.2 km/h 75 % 0.00 in /  0 mm
09:38 48.6 °F /  9.2 °C 40.7 °F /  4.8 °C 29.96 in /  1014.4 hPa West 8.0 mph /  12.9 km/h 16.0 mph /  25.7 km/h 74 % 0.00 in /  0 mm
09:43 48.8 °F /  9.3 °C 40.5 °F /  4.7 °C 29.96 in /  1014.4 hPa West 8.0 mph /  12.9 km/h 20.0 mph /  32.2 km/h 73 % 0.00 in /  0 mm
09:48 49.0 °F /  9.4 °C 40.7 °F /  4.8 °C 29.96 in /  1014.4 hPa WSW 9.0 mph /  14.5 km/h 17.0 mph /  27.4 km/h 73 % 0.00 in /  0 mm
09:53 49.0 °F /  9.4 °C 40.0 °F /  4.4 °C 29.97 in /  1014.8 hPa West 10.0 mph /  16.1 km/h 20.0 mph /  32.2 km/h 71 % 0.00 in /  0 mm
09:58 49.0 °F /  9.4 °C 40.0 °F /  4.4 °C 29.96 in /  1014.4 hPa WNW 7.6 mph /  12.2 km/h 13.8 mph /  22.2 km/h 71 % 0.00 in /  0 mm
10:03 49.1 °F /  9.5 °C 40.1 °F /  4.5 °C 29.96 in /  1014.4 hPa NW 6.6 mph /  10.6 km/h 12.7 mph /  20.4 km/h 71 % 0.00 in /  0 mm
10:08 49.4 °F /  9.7 °C 40.7 °F /  4.8 °C 29.96 in /  1014.4 hPa West 6.3 mph /  10.1 km/h 11.5 mph /  18.5 km/h 72 % 0.00 in /  0 mm
10:13 49.7 °F /  9.8 °C 40.7 °F /  4.8 °C 29.97 in /  1014.8 hPa WNW 4.1 mph /  6.6 km/h 9.2 mph /  14.8 km/h 71 % 0.00 in /  0 mm
10:18 49.9 °F /  9.9 °C 40.1 °F /  4.5 °C 29.97 in /  1014.8 hPa WSW 9.0 mph /  14.5 km/h 13.8 mph /  22.2 km/h 69 % 0.00 in /  0 mm
10:23 50.1 °F /  10.1 °C 39.9 °F /  4.4 °C 29.97 in /  1014.8 hPa WSW 8.6 mph /  13.8 km/h 16.0 mph /  25.7 km/h 68 % 0.00 in /  0 mm
10:28 50.3 °F /  10.2 °C 39.8 °F /  4.3 °C 29.97 in /  1014.8 hPa NW 8.3 mph /  13.4 km/h 18.4 mph /  29.6 km/h 67 % 0.00 in /  0 mm
10:33 50.6 °F /  10.3 °C 39.7 °F /  4.3 °C 29.97 in /  1014.8 hPa WNW 7.3 mph /  11.7 km/h 11.5 mph /  18.5 km/h 66 % 0.00 in /  0 mm
10:38 50.8 °F /  10.4 °C 39.5 °F /  4.2 °C 29.97 in /  1014.8 hPa NW 5.3 mph /  8.5 km/h 11.5 mph /  18.5 km/h 65 % 0.00 in /  0 mm
10:43 50.9 °F /  10.5 °C 39.1 °F /  3.9 °C 29.97 in /  1014.8 hPa WNW 4.6 mph /  7.4 km/h 10.4 mph /  16.7 km/h 64 % 0.00 in /  0 mm
10:49 51.5 °F /  10.8 °C 40.1 °F /  4.5 °C 29.98 in /  1015.1 hPa West 6.6 mph /  10.6 km/h 11.5 mph /  18.5 km/h 65 % 0.00 in /  0 mm
10:54 51.8 °F /  11 °C 40.0 °F /  4.4 °C 29.98 in /  1015.1 hPa WSW 6.0 mph /  9.7 km/h 10.4 mph /  16.7 km/h 64 % 0.00 in /  0 mm
10:59 52.3 °F /  11.3 °C 40.5 °F /  4.7 °C 29.98 in /  1015.1 hPa WSW 4.9 mph /  7.9 km/h 11.0 mph /  17.7 km/h 64 % 0.00 in /  0 mm
11:04 52.6 °F /  11.4 °C 39.5 °F /  4.2 °C 29.98 in /  1015.1 hPa West 5.2 mph /  8.4 km/h 10.4 mph /  16.7 km/h 61 % 0.00 in /  0 mm
11:09 53.0 °F /  11.7 °C 39.5 °F /  4.2 °C 29.97 in /  1014.8 hPa West 8.0 mph /  12.9 km/h 11.5 mph /  18.5 km/h 60 % 0.00 in /  0 mm
11:14 53.5 °F /  11.9 °C 39.5 °F /  4.2 °C 29.97 in /  1014.8 hPa WNW 7.6 mph /  12.2 km/h 13.8 mph /  22.2 km/h 59 % 0.00 in /  0 mm
11:19 53.8 °F /  12.1 °C 39.4 °F /  4.1 °C 29.98 in /  1015.1 hPa West 6.6 mph /  10.6 km/h 12.0 mph /  19.3 km/h 58 % 0.00 in /  0 mm
11:24 54.2 °F /  12.3 °C 38.8 °F /  3.8 °C 29.98 in /  1015.1 hPa WNW 7.0 mph /  11.3 km/h 13.8 mph /  22.2 km/h 56 % 0.00 in /  0 mm
11:29 54.3 °F /  12.4 °C 38.5 °F /  3.6 °C 29.98 in /  1015.1 hPa WNW 4.5 mph /  7.2 km/h 13.8 mph /  22.2 km/h 55 % 0.00 in /  0 mm
11:34 54.7 °F /  12.6 °C 38.4 °F /  3.6 °C 29.97 in /  1014.8 hPa West 4.7 mph /  7.6 km/h 11.5 mph /  18.5 km/h 54 % 0.00 in /  0 mm
11:39 54.9 °F /  12.7 °C 38.1 °F /  3.4 °C 29.97 in /  1014.8 hPa WSW 7.1 mph /  11.4 km/h 11.0 mph /  17.7 km/h 53 % 0.00 in /  0 mm
11:44 55.1 °F /  12.8 °C 38.3 °F /  3.5 °C 29.97 in /  1014.8 hPa West 4.1 mph /  6.6 km/h 9.2 mph /  14.8 km/h 53 % 0.00 in /  0 mm
11:49 55.4 °F /  13 °C 39.0 °F /  3.9 °C 29.97 in /  1014.8 hPa NW 4.9 mph /  7.9 km/h 9.2 mph /  14.8 km/h 54 % 0.00 in /  0 mm
11:54 55.7 °F /  13.2 °C 38.3 °F /  3.5 °C 29.97 in /  1014.8 hPa West 6.1 mph /  9.8 km/h 11.0 mph /  17.7 km/h 52 % 0.00 in /  0 mm
11:59 55.7 °F /  13.2 °C 38.3 °F /  3.5 °C 29.97 in /  1014.8 hPa WNW 5.4 mph /  8.7 km/h 9.0 mph /  14.5 km/h 52 % 0.00 in /  0 mm
12:05 55.6 °F /  13.1 °C 37.7 °F /  3.2 °C 29.97 in /  1014.8 hPa SW 6.6 mph /  10.6 km/h 9.2 mph /  14.8 km/h 51 % 0.00 in /  0 mm
12:10 55.6 °F /  13.1 °C 37.7 °F /  3.2 °C 29.96 in /  1014.4 hPa WSW 5.8 mph /  9.3 km/h 11.5 mph /  18.5 km/h 51 % 0.00 in /  0 mm
12:15 55.9 °F /  13.3 °C 37.5 °F /  3.1 °C 29.96 in /  1014.4 hPa WSW 5.3 mph /  8.5 km/h 11.5 mph /  18.5 km/h 50 % 0.00 in /  0 mm
12:20 56.0 °F /  13.3 °C 37.6 °F /  3.1 °C 29.95 in /  1014.1 hPa SW 5.2 mph /  8.4 km/h 12.7 mph /  20.4 km/h 50 % 0.00 in /  0 mm
12:25 56.3 °F /  13.5 °C 38.9 °F /  3.8 °C 29.95 in /  1014.1 hPa NW 3.3 mph /  5.3 km/h 6.9 mph /  11.1 km/h 52 % 0.00 in /  0 mm
12:29 56.6 °F /  13.7 °C 37.6 °F /  3.1 °C 29.95 in /  1014.1 hPa WSW 5.5 mph /  8.9 km/h 9.2 mph /  14.8 km/h 49 % 0.00 in /  0 mm
12:34 56.8 °F /  13.8 °C 37.3 °F /  2.9 °C 29.95 in /  1014.1 hPa WSW 5.6 mph /  9 km/h 9.2 mph /  14.8 km/h 48 % 0.00 in /  0 mm
12:39 57.0 °F /  13.9 °C 37.0 °F /  2.8 °C 29.95 in /  1014.1 hPa WNW 3.9 mph /  6.3 km/h 6.9 mph /  11.1 km/h 47 % 0.00 in /  0 mm
12:44 57.3 °F /  14.1 °C 36.7 °F /  2.6 °C 29.95 in /  1014.1 hPa WSW 5.8 mph /  9.3 km/h 9.2 mph /  14.8 km/h 46 % 0.00 in /  0 mm
12:49 57.5 °F /  14.2 °C 36.9 °F /  2.7 °C 29.94 in /  1013.8 hPa WSW 7.0 mph /  11.3 km/h 11.5 mph /  18.5 km/h 46 % 0.00 in /  0 mm
12:54 57.7 °F /  14.3 °C 37.0 °F /  2.8 °C 29.94 in /  1013.8 hPa West 4.9 mph /  7.9 km/h 6.9 mph /  11.1 km/h 46 % 0.00 in /  0 mm
13:00 57.8 °F /  14.3 °C 35.4 °F /  1.9 °C 29.94 in /  1013.8 hPa West 8.7 mph /  14 km/h 13.8 mph /  22.2 km/h 43 % 0.00 in /  0 mm
13:05 57.6 °F /  14.2 °C 34.7 °F /  1.5 °C 29.93 in /  1013.4 hPa SSW 7.8 mph /  12.6 km/h 9.0 mph /  14.5 km/h 42 % 0.00 in /  0 mm
13:10 57.7 °F /  14.3 °C 34.1 °F /  1.2 °C 29.93 in /  1013.4 hPa WSW 5.1 mph /  8.2 km/h 9.2 mph /  14.8 km/h 41 % 0.00 in /  0 mm
13:15 57.7 °F /  14.3 °C 34.7 °F /  1.5 °C 29.93 in /  1013.4 hPa WNW 4.2 mph /  6.8 km/h 9.2 mph /  14.8 km/h 42 % 0.00 in /  0 mm
13:20 58.0 °F /  14.4 °C 34.4 °F /  1.3 °C 29.93 in /  1013.4 hPa West 0.8 mph /  1.3 km/h 7.0 mph /  11.3 km/h 41 % 0.00 in /  0 mm
13:25 58.2 °F /  14.6 °C 33.3 °F /  0.7 °C 29.92 in /  1013.1 hPa NW 1.5 mph /  2.4 km/h 5.8 mph /  9.3 km/h 39 % 0.00 in /  0 mm
13:30 58.5 °F /  14.7 °C 34.9 °F /  1.6 °C 29.92 in /  1013.1 hPa SW 4.4 mph /  7.1 km/h 8.1 mph /  13 km/h 41 % 0.00 in /  0 mm
13:35 58.8 °F /  14.9 °C 35.1 °F /  1.7 °C 29.91 in /  1012.8 hPa SW 2.8 mph /  4.5 km/h 9.2 mph /  14.8 km/h 41 % 0.00 in /  0 mm
13:40 59.0 °F /  15 °C 34.1 °F /  1.2 °C 29.91 in /  1012.8 hPa West 3.8 mph /  6.1 km/h 5.8 mph /  9.3 km/h 39 % 0.00 in /  0 mm
13:45 59.1 °F /  15.1 °C 34.8 °F /  1.6 °C 29.90 in /  1012.4 hPa WSW 4.4 mph /  7.1 km/h 6.9 mph /  11.1 km/h 40 % 0.00 in /  0 mm
13:50 59.3 °F /  15.2 °C 34.3 °F /  1.3 °C 29.90 in /  1012.4 hPa WSW 4.7 mph /  7.6 km/h 8.1 mph /  13 km/h 39 % 0.00 in /  0 mm
13:55 59.5 °F /  15.3 °C 33.2 °F /  0.7 °C 29.90 in /  1012.4 hPa West 6.5 mph /  10.5 km/h 11.5 mph /  18.5 km/h 37 % 0.00 in /  0 mm
14:01 59.6 °F /  15.3 °C 33.3 °F /  0.7 °C 29.90 in /  1012.4 hPa SW 6.1 mph /  9.8 km/h 9.0 mph /  14.5 km/h 37 % 0.00 in /  0 mm
14:06 59.8 °F /  15.4 °C 32.8 °F /  0.4 °C 29.90 in /  1012.4 hPa WSW 6.4 mph /  10.3 km/h 9.0 mph /  14.5 km/h 36 % 0.00 in /  0 mm
14:11 59.8 °F /  15.4 °C 31.3 °F /  -0.4 °C 29.89 in /  1012.1 hPa West 5.8 mph /  9.3 km/h 9.2 mph /  14.8 km/h 34 % 0.00 in /  0 mm
14:16 59.8 °F /  15.4 °C 31.3 °F /  -0.4 °C 29.89 in /  1012.1 hPa WSW 4.7 mph /  7.6 km/h 8.1 mph /  13 km/h 34 % 0.00 in /  0 mm
14:21 59.8 °F /  15.4 °C 31.3 °F /  -0.4 °C 29.89 in /  1012.1 hPa WSW 5.1 mph /  8.2 km/h 9.0 mph /  14.5 km/h 34 % 0.00 in /  0 mm
14:26 59.9 °F /  15.5 °C 29.2 °F /  -1.6 °C 29.89 in /  1012.1 hPa SW 4.5 mph /  7.2 km/h 8.1 mph /  13 km/h 31 % 0.00 in /  0 mm
14:31 59.9 °F /  15.5 °C 28.4 °F /  -2 °C 29.89 in /  1012.1 hPa West 4.5 mph /  7.2 km/h 11.5 mph /  18.5 km/h 30 % 0.00 in /  0 mm
14:36 59.8 °F /  15.4 °C 29.1 °F /  -1.6 °C 29.89 in /  1012.1 hPa WSW 4.8 mph /  7.7 km/h 9.2 mph /  14.8 km/h 31 % 0.00 in /  0 mm
14:41 59.7 °F /  15.4 °C 29.0 °F /  -1.7 °C 29.88 in /  1011.7 hPa WNW 6.2 mph /  10 km/h 11.5 mph /  18.5 km/h 31 % 0.00 in /  0 mm
14:46 59.6 °F /  15.3 °C 28.1 °F /  -2.2 °C 29.89 in /  1012.1 hPa West 7.9 mph /  12.7 km/h 13.8 mph /  22.2 km/h 30 % 0.00 in /  0 mm
14:51 59.4 °F /  15.2 °C 27.9 °F /  -2.3 °C 29.88 in /  1011.7 hPa West 6.2 mph /  10 km/h 13.0 mph /  20.9 km/h 30 % 0.00 in /  0 mm
14:56 59.2 °F /  15.1 °C 27.7 °F /  -2.4 °C 29.88 in /  1011.7 hPa WSW 4.6 mph /  7.4 km/h 11.5 mph /  18.5 km/h 30 % 0.00 in /  0 mm
15:01 59.1 °F /  15.1 °C 28.5 °F /  -1.9 °C 29.88 in /  1011.7 hPa SW 8.8 mph /  14.2 km/h 12.7 mph /  20.4 km/h 31 % 0.00 in /  0 mm
15:06 59.0 °F /  15 °C 27.6 °F /  -2.4 °C 29.88 in /  1011.7 hPa WSW 7.5 mph /  12.1 km/h 17.0 mph /  27.4 km/h 30 % 0.00 in /  0 mm
15:11 58.8 °F /  14.9 °C 27.4 °F /  -2.6 °C 29.88 in /  1011.7 hPa ESE 7.3 mph /  11.7 km/h 12.7 mph /  20.4 km/h 30 % 0.00 in /  0 mm
15:17 58.7 °F /  14.8 °C 28.9 °F /  -1.7 °C 29.88 in /  1011.7 hPa WNW 2.6 mph /  4.2 km/h 10.4 mph /  16.7 km/h 32 % 0.00 in /  0 mm
15:22 58.7 °F /  14.8 °C 28.9 °F /  -1.7 °C 29.88 in /  1011.7 hPa West 10.5 mph /  16.9 km/h 18.4 mph /  29.6 km/h 32 % 0.00 in /  0 mm
15:27 58.6 °F /  14.8 °C 28.0 °F /  -2.2 °C 29.87 in /  1011.4 hPa WSW 6.5 mph /  10.5 km/h 12.0 mph /  19.3 km/h 31 % 0.00 in /  0 mm
15:32 58.6 °F /  14.8 °C 28.8 °F /  -1.8 °C 29.87 in /  1011.4 hPa SW 12.5 mph /  20.1 km/h 13.8 mph /  22.2 km/h 32 % 0.00 in /  0 mm
15:37 58.5 °F /  14.7 °C 28.7 °F /  -1.8 °C 29.87 in /  1011.4 hPa SW 7.8 mph /  12.6 km/h 11.5 mph /  18.5 km/h 32 % 0.00 in /  0 mm
15:42 58.5 °F /  14.7 °C 28.7 °F /  -1.8 °C 29.86 in /  1011.1 hPa SSW 10.5 mph /  16.9 km/h 18.4 mph /  29.6 km/h 32 % 0.00 in /  0 mm
15:47 58.4 °F /  14.7 °C 27.9 °F /  -2.3 °C 29.87 in /  1011.4 hPa SW 7.0 mph /  11.3 km/h 15.0 mph /  24.1 km/h 31 % 0.00 in /  0 mm
15:52 58.4 °F /  14.7 °C 29.4 °F /  -1.4 °C 29.87 in /  1011.4 hPa SW 9.2 mph /  14.8 km/h 16.1 mph /  25.9 km/h 33 % 0.00 in /  0 mm
15:57 58.4 °F /  14.7 °C 29.4 °F /  -1.4 °C 29.87 in /  1011.4 hPa SW 7.0 mph /  11.3 km/h 11.5 mph /  18.5 km/h 33 % 0.00 in /  0 mm
16:02 58.4 °F /  14.7 °C 28.6 °F /  -1.9 °C 29.87 in /  1011.4 hPa WSW 8.2 mph /  13.2 km/h 13.8 mph /  22.2 km/h 32 % 0.00 in /  0 mm
16:07 58.3 °F /  14.6 °C 28.5 °F /  -1.9 °C 29.87 in /  1011.4 hPa WSW 6.5 mph /  10.5 km/h 11.5 mph /  18.5 km/h 32 % 0.00 in /  0 mm
16:12 58.3 °F /  14.6 °C 29.3 °F /  -1.5 °C 29.87 in /  1011.4 hPa West 6.1 mph /  9.8 km/h 9.2 mph /  14.8 km/h 33 % 0.00 in /  0 mm
16:17 58.2 °F /  14.6 °C 28.5 °F /  -1.9 °C 29.87 in /  1011.4 hPa WSW 11.4 mph /  18.3 km/h 19.6 mph /  31.5 km/h 32 % 0.00 in /  0 mm
16:23 58.1 °F /  14.5 °C 28.4 °F /  -2 °C 29.87 in /  1011.4 hPa SW 9.6 mph /  15.4 km/h 18.4 mph /  29.6 km/h 32 % 0.00 in /  0 mm
16:28 58.0 °F /  14.4 °C 28.3 °F /  -2.1 °C 29.87 in /  1011.4 hPa West 6.4 mph /  10.3 km/h 9.2 mph /  14.8 km/h 32 % 0.00 in /  0 mm
16:33 57.9 °F /  14.4 °C 28.9 °F /  -1.7 °C 29.87 in /  1011.4 hPa WSW 3.9 mph /  6.3 km/h 13.8 mph /  22.2 km/h 33 % 0.00 in /  0 mm
16:38 57.8 °F /  14.3 °C 28.9 °F /  -1.7 °C 29.87 in /  1011.4 hPa WSW 8.3 mph /  13.4 km/h 15.0 mph /  24.1 km/h 33 % 0.00 in /  0 mm
16:43 57.8 °F /  14.3 °C 28.1 °F /  -2.2 °C 29.87 in /  1011.4 hPa WSW 8.4 mph /  13.5 km/h 12.0 mph /  19.3 km/h 32 % 0.00 in /  0 mm
16:48 57.8 °F /  14.3 °C 28.9 °F /  -1.7 °C 29.86 in /  1011.1 hPa WSW 6.2 mph /  10 km/h 11.5 mph /  18.5 km/h 33 % 0.00 in /  0 mm
16:58 57.7 °F /  14.3 °C 28.0 °F /  -2.2 °C 29.86 in /  1011.1 hPa SW 6.9 mph /  11.1 km/h 18.4 mph /  29.6 km/h 32 % 0.00 in /  0 mm
17:03 57.6 °F /  14.2 °C 28.7 °F /  -1.8 °C 29.86 in /  1011.1 hPa SW 5.8 mph /  9.3 km/h 13.8 mph /  22.2 km/h 33 % 0.00 in /  0 mm
17:08 57.5 °F /  14.2 °C 29.3 °F /  -1.5 °C 29.86 in /  1011.1 hPa WSW 5.7 mph /  9.2 km/h 8.1 mph /  13 km/h 34 % 0.00 in /  0 mm
17:13 57.5 °F /  14.2 °C 28.6 °F /  -1.9 °C 29.86 in /  1011.1 hPa SW 8.5 mph /  13.7 km/h 13.8 mph /  22.2 km/h 33 % 0.00 in /  0 mm
17:18 57.4 °F /  14.1 °C 28.5 °F /  -1.9 °C 29.86 in /  1011.1 hPa SW 3.1 mph /  5 km/h 6.0 mph /  9.7 km/h 33 % 0.00 in /  0 mm
17:23 57.3 °F /  14.1 °C 28.4 °F /  -2 °C 29.86 in /  1011.1 hPa SW 5.9 mph /  9.5 km/h 13.8 mph /  22.2 km/h 33 % 0.00 in /  0 mm
17:28 57.1 °F /  13.9 °C 29.0 °F /  -1.7 °C 29.86 in /  1011.1 hPa SSW 4.3 mph /  6.9 km/h 8.1 mph /  13 km/h 34 % 0.00 in /  0 mm
17:33 57.0 °F /  13.9 °C 29.6 °F /  -1.3 °C 29.85 in /  1010.7 hPa South 4.7 mph /  7.6 km/h 7.0 mph /  11.3 km/h 35 % 0.00 in /  0 mm
17:39 56.8 °F /  13.8 °C 29.4 °F /  -1.4 °C 29.86 in /  1011.1 hPa SW 6.5 mph /  10.5 km/h 11.5 mph /  18.5 km/h 35 % 0.00 in /  0 mm
17:44 56.6 °F /  13.7 °C 29.2 °F /  -1.6 °C 29.85 in /  1010.7 hPa SW 6.1 mph /  9.8 km/h 11.5 mph /  18.5 km/h 35 % 0.00 in /  0 mm
17:49 56.4 °F /  13.6 °C 29.1 °F /  -1.6 °C 29.85 in /  1010.7 hPa SSW 6.0 mph /  9.7 km/h 9.2 mph /  14.8 km/h 35 % 0.00 in /  0 mm
17:54 56.3 °F /  13.5 °C 29.0 °F /  -1.7 °C 29.85 in /  1010.7 hPa SW 4.0 mph /  6.4 km/h 6.9 mph /  11.1 km/h 35 % 0.00 in /  0 mm
17:59 56.1 °F /  13.4 °C 29.5 °F /  -1.4 °C 29.85 in /  1010.7 hPa SW 2.4 mph /  3.9 km/h 6.9 mph /  11.1 km/h 36 % 0.00 in /  0 mm
18:04 55.9 °F /  13.3 °C 29.3 °F /  -1.5 °C 29.85 in /  1010.7 hPa SSW 5.0 mph /  8 km/h 11.5 mph /  18.5 km/h 36 % 0.00 in /  0 mm
18:09 55.7 °F /  13.2 °C 29.1 °F /  -1.6 °C 29.85 in /  1010.7 hPa South 5.8 mph /  9.3 km/h 6.9 mph /  11.1 km/h 36 % 0.00 in /  0 mm
18:14 55.6 °F /  13.1 °C 29.0 °F /  -1.7 °C 29.85 in /  1010.7 hPa SSW 4.9 mph /  7.9 km/h 8.1 mph /  13 km/h 36 % 0.00 in /  0 mm
18:19 55.4 °F /  13 °C 29.5 °F /  -1.4 °C 29.86 in /  1011.1 hPa SW 2.9 mph /  4.7 km/h 4.6 mph /  7.4 km/h 37 % 0.00 in /  0 mm
18:24 55.3 °F /  12.9 °C 29.4 °F /  -1.4 °C 29.86 in /  1011.1 hPa SSW 3.4 mph /  5.5 km/h 4.6 mph /  7.4 km/h 37 % 0.00 in /  0 mm
18:29 55.1 °F /  12.8 °C 29.9 °F /  -1.2 °C 29.86 in /  1011.1 hPa SSW 1.0 mph /  1.6 km/h 3.5 mph /  5.6 km/h 38 % 0.00 in /  0 mm
18:34 54.7 °F /  12.6 °C 32.0 °F /  0 °C 29.86 in /  1011.1 hPa South 2.1 mph /  3.4 km/h 4.6 mph /  7.4 km/h 42 % 0.00 in /  0 mm
18:40 54.2 °F /  12.3 °C 33.3 °F /  0.7 °C 29.86 in /  1011.1 hPa SSW 5.5 mph /  8.9 km/h 6.9 mph /  11.1 km/h 45 % 0.00 in /  0 mm
18:45 53.6 °F /  12 °C 33.8 °F /  1 °C 29.86 in /  1011.1 hPa WSW 1.5 mph /  2.4 km/h 5.8 mph /  9.3 km/h 47 % 0.00 in /  0 mm
18:50 53.1 °F /  11.7 °C 34.4 °F /  1.3 °C 29.86 in /  1011.1 hPa South 4.2 mph /  6.8 km/h 4.6 mph /  7.4 km/h 49 % 0.00 in /  0 mm
18:55 52.5 °F /  11.4 °C 34.9 °F /  1.6 °C 29.86 in /  1011.1 hPa South 3.5 mph /  5.6 km/h 8.1 mph /  13 km/h 51 % 0.00 in /  0 mm
19:00 52.1 °F /  11.2 °C 35.0 °F /  1.7 °C 29.86 in /  1011.1 hPa SSE 3.8 mph /  6.1 km/h 10.4 mph /  16.7 km/h 52 % 0.00 in /  0 mm
19:05 51.6 °F /  10.9 °C 35.5 °F /  1.9 °C 29.86 in /  1011.1 hPa South 3.0 mph /  4.8 km/h 5.8 mph /  9.3 km/h 54 % 0.00 in /  0 mm
19:10 51.2 °F /  10.7 °C 36.0 °F /  2.2 °C 29.86 in /  1011.1 hPa South 4.5 mph /  7.2 km/h 6.9 mph /  11.1 km/h 56 % 0.00 in /  0 mm
19:15 50.7 °F /  10.4 °C 36.0 °F /  2.2 °C 29.86 in /  1011.1 hPa SSW 5.5 mph /  8.9 km/h 8.1 mph /  13 km/h 57 % 0.00 in /  0 mm
19:20 50.3 °F /  10.2 °C 36.1 °F /  2.3 °C 29.86 in /  1011.1 hPa SSW 3.4 mph /  5.5 km/h 5.8 mph /  9.3 km/h 58 % 0.00 in /  0 mm
19:25 49.9 °F /  9.9 °C 36.1 °F /  2.3 °C 29.85 in /  1010.7 hPa SW 3.0 mph /  4.8 km/h 5.8 mph /  9.3 km/h 59 % 0.00 in /  0 mm
19:30 49.5 °F /  9.7 °C 36.2 °F /  2.3 °C 29.85 in /  1010.7 hPa South 4.0 mph /  6.4 km/h 6.9 mph /  11.1 km/h 60 % 0.00 in /  0 mm
19:35 49.2 °F /  9.6 °C 36.3 °F /  2.4 °C 29.85 in /  1010.7 hPa SSW 5.6 mph /  9 km/h 8.1 mph /  13 km/h 61 % 0.00 in /  0 mm
19:41 49.0 °F /  9.4 °C 36.5 °F /  2.5 °C 29.85 in /  1010.7 hPa South 4.5 mph /  7.2 km/h 11.5 mph /  18.5 km/h 62 % 0.00 in /  0 mm
19:46 48.8 °F /  9.3 °C 36.4 °F /  2.4 °C 29.85 in /  1010.7 hPa South 4.4 mph /  7.1 km/h 5.8 mph /  9.3 km/h 62 % 0.00 in /  0 mm
19:51 48.7 °F /  9.3 °C 35.8 °F /  2.1 °C 29.85 in /  1010.7 hPa South 4.4 mph /  7.1 km/h 6.9 mph /  11.1 km/h 61 % 0.00 in /  0 mm
19:56 48.6 °F /  9.2 °C 35.7 °F /  2.1 °C 29.85 in /  1010.7 hPa South 6.0 mph /  9.7 km/h 10.4 mph /  16.7 km/h 61 % 0.00 in /  0 mm
20:01 48.7 °F /  9.3 °C 35.8 °F /  2.1 °C 29.85 in /  1010.7 hPa SSW 5.3 mph /  8.5 km/h 8.1 mph /  13 km/h 61 % 0.00 in /  0 mm
20:06 48.7 °F /  9.3 °C 35.4 °F /  1.9 °C 29.85 in /  1010.7 hPa SSE 5.7 mph /  9.2 km/h 11.5 mph /  18.5 km/h 60 % 0.00 in /  0 mm
20:11 48.8 °F /  9.3 °C 35.5 °F /  1.9 °C 29.85 in /  1010.7 hPa SSW 3.7 mph /  6 km/h 8.1 mph /  13 km/h 60 % 0.00 in /  0 mm
20:16 48.8 °F /  9.3 °C 35.5 °F /  1.9 °C 29.85 in /  1010.7 hPa SSW 4.3 mph /  6.9 km/h 6.9 mph /  11.1 km/h 60 % 0.00 in /  0 mm
20:21 48.9 °F /  9.4 °C 35.2 °F /  1.8 °C 29.86 in /  1011.1 hPa SSW 5.3 mph /  8.5 km/h 9.0 mph /  14.5 km/h 59 % 0.00 in /  0 mm
20:26 49.0 °F /  9.4 °C 35.3 °F /  1.8 °C 29.85 in /  1010.7 hPa South 6.0 mph /  9.7 km/h 9.2 mph /  14.8 km/h 59 % 0.00 in /  0 mm
20:31 49.1 °F /  9.5 °C 35.4 °F /  1.9 °C 29.85 in /  1010.7 hPa SSW 6.1 mph /  9.8 km/h 8.1 mph /  13 km/h 59 % 0.00 in /  0 mm
20:36 49.2 °F /  9.6 °C 35.5 °F /  1.9 °C 29.85 in /  1010.7 hPa SW 5.3 mph /  8.5 km/h 12.7 mph /  20.4 km/h 59 % 0.00 in /  0 mm
20:41 49.2 °F /  9.6 °C 35.5 °F /  1.9 °C 29.86 in /  1011.1 hPa SW 5.5 mph /  8.9 km/h 10.4 mph /  16.7 km/h 59 % 0.00 in /  0 mm
20:47 49.2 °F /  9.6 °C 35.9 °F /  2.2 °C 29.86 in /  1011.1 hPa SSW 6.1 mph /  9.8 km/h 11.5 mph /  18.5 km/h 60 % 0.00 in /  0 mm
20:52 49.2 °F /  9.6 °C 35.9 °F /  2.2 °C 29.86 in /  1011.1 hPa SSW 6.3 mph /  10.1 km/h 11.5 mph /  18.5 km/h 60 % 0.00 in /  0 mm
20:57 49.1 °F /  9.5 °C 35.8 °F /  2.1 °C 29.86 in /  1011.1 hPa South 5.8 mph /  9.3 km/h 8.1 mph /  13 km/h 60 % 0.00 in /  0 mm
21:02 49.1 °F /  9.5 °C 35.8 °F /  2.1 °C 29.86 in /  1011.1 hPa South 3.1 mph /  5 km/h 8.0 mph /  12.9 km/h 60 % 0.00 in /  0 mm
21:07 49.0 °F /  9.4 °C 36.1 °F /  2.3 °C 29.86 in /  1011.1 hPa SW 7.8 mph /  12.6 km/h 12.0 mph /  19.3 km/h 61 % 0.00 in /  0 mm
21:12 49.0 °F /  9.4 °C 36.1 °F /  2.3 °C 29.86 in /  1011.1 hPa SSW 9.4 mph /  15.1 km/h 13.8 mph /  22.2 km/h 61 % 0.00 in /  0 mm
21:17 49.0 °F /  9.4 °C 36.1 °F /  2.3 °C 29.87 in /  1011.4 hPa South 5.5 mph /  8.9 km/h 11.5 mph /  18.5 km/h 61 % 0.00 in /  0 mm
21:22 48.9 °F /  9.4 °C 36.0 °F /  2.2 °C 29.86 in /  1011.1 hPa SW 8.2 mph /  13.2 km/h 12.7 mph /  20.4 km/h 61 % 0.00 in /  0 mm
21:27 48.9 °F /  9.4 °C 36.4 °F /  2.4 °C 29.87 in /  1011.4 hPa SSW 5.3 mph /  8.5 km/h 10.4 mph /  16.7 km/h 62 % 0.00 in /  0 mm
21:32 48.8 °F /  9.3 °C 35.9 °F /  2.2 °C 29.87 in /  1011.4 hPa SSW 7.0 mph /  11.3 km/h 11.5 mph /  18.5 km/h 61 % 0.00 in /  0 mm
21:37 48.8 °F /  9.3 °C 35.9 °F /  2.2 °C 29.87 in /  1011.4 hPa SSW 5.6 mph /  9 km/h 8.1 mph /  13 km/h 61 % 0.00 in /  0 mm
21:42 48.8 °F /  9.3 °C 35.9 °F /  2.2 °C 29.87 in /  1011.4 hPa SW 4.0 mph /  6.4 km/h 8.1 mph /  13 km/h 61 % 0.00 in /  0 mm
21:47 48.8 °F /  9.3 °C 35.9 °F /  2.2 °C 29.87 in /  1011.4 hPa SSW 7.6 mph /  12.2 km/h 17.3 mph /  27.8 km/h 61 % 0.00 in /  0 mm
21:53 48.9 °F /  9.4 °C 35.6 °F /  2 °C 29.87 in /  1011.4 hPa SSW 8.1 mph /  13 km/h 13.0 mph /  20.9 km/h 60 % 0.00 in /  0 mm
21:58 49.0 °F /  9.4 °C 35.7 °F /  2.1 °C 29.87 in /  1011.4 hPa West 6.7 mph /  10.8 km/h 11.5 mph /  18.5 km/h 60 % 0.00 in /  0 mm
22:03 48.9 °F /  9.4 °C 36.0 °F /  2.2 °C 29.87 in /  1011.4 hPa SSW 7.1 mph /  11.4 km/h 16.1 mph /  25.9 km/h 61 % 0.00 in /  0 mm
22:08 49.0 °F /  9.4 °C 36.1 °F /  2.3 °C 29.87 in /  1011.4 hPa SW 5.0 mph /  8 km/h 15.0 mph /  24.1 km/h 61 % 0.00 in /  0 mm
22:13 49.0 °F /  9.4 °C 35.7 °F /  2.1 °C 29.87 in /  1011.4 hPa SSW 5.0 mph /  8 km/h 15.0 mph /  24.1 km/h 60 % 0.00 in /  0 mm
22:18 49.0 °F /  9.4 °C 35.7 °F /  2.1 °C 29.87 in /  1011.4 hPa SSW 7.0 mph /  11.3 km/h 12.0 mph /  19.3 km/h 60 % 0.00 in /  0 mm
22:23 49.0 °F /  9.4 °C 35.7 °F /  2.1 °C 29.87 in /  1011.4 hPa SSW 6.0 mph /  9.7 km/h 17.0 mph /  27.4 km/h 60 % 0.00 in /  0 mm
22:28 48.9 °F /  9.4 °C 35.7 °F /  2.1 °C 29.87 in /  1011.4 hPa SSW 8.0 mph /  12.9 km/h 17.0 mph /  27.4 km/h 60 % 0.00 in /  0 mm
22:33 48.8 °F /  9.3 °C 35.6 °F /  2 °C 29.87 in /  1011.4 hPa SSW 8.0 mph /  12.9 km/h 13.0 mph /  20.9 km/h 60 % 0.00 in /  0 mm
22:38 48.8 °F /  9.3 °C 35.1 °F /  1.7 °C 29.87 in /  1011.4 hPa SSW 6.0 mph /  9.7 km/h 12.0 mph /  19.3 km/h 59 % 0.00 in /  0 mm
22:43 48.9 °F /  9.4 °C 34.3 °F /  1.3 °C 29.87 in /  1011.4 hPa SW 6.0 mph /  9.7 km/h 14.0 mph /  22.5 km/h 57 % 0.00 in /  0 mm
22:48 49.2 °F /  9.6 °C 33.3 °F /  0.7 °C 29.86 in /  1011.1 hPa SW 9.1 mph /  14.6 km/h 12.7 mph /  20.4 km/h 54 % 0.00 in /  0 mm
22:53 49.8 °F /  9.9 °C 32.8 °F /  0.4 °C 29.86 in /  1011.1 hPa SW 7.0 mph /  11.3 km/h 15.0 mph /  24.1 km/h 52 % 0.00 in /  0 mm
22:58 50.1 °F /  10.1 °C 32.2 °F /  0.1 °C 29.86 in /  1011.1 hPa SW 7.0 mph /  11.3 km/h 13.8 mph /  22.2 km/h 50 % 0.00 in /  0 mm
23:03 50.3 °F /  10.2 °C 31.4 °F /  -0.3 °C 29.86 in /  1011.1 hPa SW 8.0 mph /  12.9 km/h 15.0 mph /  24.1 km/h 48 % 0.00 in /  0 mm
23:08 50.6 °F /  10.3 °C 31.6 °F /  -0.2 °C 29.86 in /  1011.1 hPa SW 3.0 mph /  4.8 km/h 12.0 mph /  19.3 km/h 48 % 0.00 in /  0 mm
23:13 50.6 °F /  10.3 °C 32.1 °F /  0.1 °C 29.86 in /  1011.1 hPa SSW 5.0 mph /  8 km/h 12.0 mph /  19.3 km/h 49 % 0.00 in /  0 mm
23:18 50.5 °F /  10.3 °C 33.0 °F /  0.6 °C 29.86 in /  1011.1 hPa SSW 8.0 mph /  12.9 km/h 14.0 mph /  22.5 km/h 51 % 0.00 in /  0 mm
23:23 50.3 °F /  10.2 °C 33.3 °F /  0.7 °C 29.86 in /  1011.1 hPa SW 4.5 mph /  7.2 km/h 7.0 mph /  11.3 km/h 52 % 0.00 in /  0 mm
23:28 50.1 °F /  10.1 °C 33.1 °F /  0.6 °C 29.86 in /  1011.1 hPa SSW 5.0 mph /  8 km/h 10.0 mph /  16.1 km/h 52 % 0.00 in /  0 mm
23:33 49.9 °F /  9.9 °C 33.0 °F /  0.6 °C 29.86 in /  1011.1 hPa SW 7.0 mph /  11.3 km/h 12.0 mph /  19.3 km/h 52 % 0.00 in /  0 mm
23:38 49.7 °F /  9.8 °C 31.8 °F /  -0.1 °C 29.85 in /  1010.7 hPa SW 8.0 mph /  12.9 km/h 13.0 mph /  20.9 km/h 50 % 0.00 in /  0 mm
23:43 49.9 °F /  9.9 °C 30.5 °F /  -0.8 °C 29.86 in /  1011.1 hPa SSW 9.4 mph /  15.1 km/h 15.0 mph /  24.1 km/h 47 % 0.00 in /  0 mm
23:48 50.4 °F /  10.2 °C 29.8 °F /  -1.2 °C 29.86 in /  1011.1 hPa SW 6.0 mph /  9.7 km/h 13.0 mph /  20.9 km/h 45 % 0.00 in /  0 mm
23:53 50.8 °F /  10.4 °C 28.5 °F /  -1.9 °C 29.85 in /  1010.7 hPa SW 7.0 mph /  11.3 km/h 15.0 mph /  24.1 km/h 42 % 0.00 in /  0 mm
23:58 51.6 °F /  10.9 °C 27.4 °F /  -2.6 °C 29.86 in /  1011.1 hPa West 6.9 mph /  11.1 km/h 13.8 mph /  22.2 km/h 39 % 0.00 in /  0 mm
Crab Meadow Weather
Compliments of Weather Underground - 3 mb

Script developed by  Jim McMurry - jmcmurry@mwt.net Adapted for the template by  Wim van der Kuil - Leuven-Template.eu

Lightning: At any given moment, there are about 1,800 thunderstorms happening around the world. Approximately 100 lightning bolts strike the earth every second.